createdAt,value
2022-11-02T00:01:51.396Z,9.50
2022-11-02T00:06:56.187Z,9.47
2022-11-02T00:11:59.702Z,9.40
2022-11-02T00:17:03.175Z,9.40
2022-11-02T00:22:07.930Z,9.45
2022-11-02T00:27:11.410Z,9.43
2022-11-02T00:32:14.774Z,9.52
2022-11-02T00:37:19.781Z,9.41
2022-11-02T00:42:23.210Z,9.37
2022-11-02T00:47:26.545Z,9.49
2022-11-02T00:52:32.593Z,9.43
2022-11-02T00:57:36.162Z,9.49
2022-11-02T01:02:40.164Z,9.38
2022-11-02T01:07:45.161Z,9.43
2022-11-02T01:12:48.422Z,9.37
2022-11-02T01:17:51.798Z,9.30
2022-11-02T01:22:56.441Z,9.34
2022-11-02T01:27:59.716Z,9.42
2022-11-02T01:33:05.956Z,9.45
2022-11-02T01:38:11.598Z,9.34
2022-11-02T01:43:23.226Z,9.13
2022-11-02T01:48:32.071Z,9.15
2022-11-02T01:53:40.637Z,9.03
2022-11-02T01:58:46.011Z,9.15
2022-11-02T02:03:51.374Z,9.04
2022-11-02T02:09:03.026Z,9.06
2022-11-02T02:14:09.487Z,9.06
2022-11-02T02:19:31.916Z,9.11
2022-11-02T02:24:50.538Z,9.06
2022-11-02T02:30:03.860Z,8.93
2022-11-02T02:35:16.284Z,9.14
2022-11-02T02:40:23.772Z,9.26
2022-11-02T02:45:34.747Z,9.69
2022-11-02T02:50:40.685Z,9.41
2022-11-02T02:55:47.310Z,9.52
2022-11-02T03:00:53.958Z,9.38
2022-11-02T03:06:06.198Z,9.46
2022-11-02T03:11:15.090Z,9.40
2022-11-02T03:16:37.258Z,9.50
2022-11-02T03:21:44.770Z,9.69
2022-11-02T03:26:52.916Z,9.43
2022-11-02T03:32:04.354Z,9.52
2022-11-02T03:37:15.113Z,9.66
2022-11-02T03:42:22.894Z,9.96
2022-11-02T03:47:33.243Z,9.78
2022-11-02T03:52:42.982Z,9.73
2022-11-02T03:57:50.491Z,9.62
2022-11-02T04:03:02.703Z,9.73
2022-11-02T04:08:22.282Z,9.86
2022-11-02T04:13:53.449Z,9.70
2022-11-02T04:19:15.696Z,9.54
2022-11-02T04:24:37.454Z,9.96
2022-11-02T04:29:41.090Z,9.54
2022-11-02T04:34:45.980Z,9.66
2022-11-02T04:39:50.995Z,9.38
2022-11-02T04:44:56.426Z,9.44
2022-11-02T04:50:02.151Z,9.28
2022-11-02T04:55:06.877Z,9.14
2022-11-02T05:00:12.901Z,9.06
2022-11-02T05:05:19.414Z,9.17
2022-11-02T05:10:25.347Z,9.21
2022-11-02T05:15:29.502Z,9.53
2022-11-02T05:20:35.710Z,9.55
2022-11-02T05:25:39.546Z,9.61
2022-11-02T05:30:43.231Z,9.66
2022-11-02T05:35:48.456Z,9.50
2022-11-02T05:40:56.207Z,9.61
2022-11-02T05:46:03.489Z,9.69
2022-11-02T05:51:11.050Z,9.97
2022-11-02T05:56:14.718Z,10.08
2022-11-02T06:01:18.139Z,10.12
2022-11-02T06:06:23.013Z,10.29
2022-11-02T06:11:26.363Z,10.25
2022-11-02T06:16:29.850Z,10.33
2022-11-02T06:21:34.652Z,10.50
2022-11-02T06:26:38.105Z,10.36
2022-11-02T06:31:41.625Z,10.61
2022-11-02T06:36:46.309Z,10.86
2022-11-02T06:41:49.717Z,10.91
2022-11-02T06:46:53.037Z,11.01
2022-11-02T06:51:58.924Z,11.16
2022-11-02T06:57:02.283Z,11.04
2022-11-02T07:02:05.833Z,11.12
2022-11-02T07:07:10.634Z,11.04
2022-11-02T07:12:14.110Z,11.07
2022-11-02T07:17:17.580Z,11.13
2022-11-02T07:22:22.434Z,11.18
2022-11-02T07:27:25.786Z,11.30
2022-11-02T07:32:29.301Z,11.53
2022-11-02T07:37:34.251Z,11.50
2022-11-02T07:42:37.719Z,11.66
2022-11-02T07:47:44.304Z,11.83
2022-11-02T07:52:50.761Z,11.84
2022-11-02T07:57:54.940Z,11.64
2022-11-02T08:02:59.360Z,11.78
2022-11-02T08:08:06.558Z,11.73
2022-11-02T08:13:11.699Z,12.00
2022-11-02T08:18:16.819Z,12.18
2022-11-02T08:23:21.952Z,11.98
2022-11-02T08:28:28.573Z,12.05
2022-11-02T08:33:32.048Z,12.29
2022-11-02T08:38:36.774Z,12.48
2022-11-02T08:43:40.237Z,12.35
2022-11-02T08:48:43.599Z,12.76
2022-11-02T08:53:51.615Z,12.67
2022-11-02T08:58:55.411Z,12.58
2022-11-02T09:03:58.975Z,12.31
2022-11-02T09:09:03.775Z,12.50
2022-11-02T09:14:07.916Z,12.43
2022-11-02T09:19:11.437Z,12.37
2022-11-02T09:24:16.427Z,12.39
2022-11-02T09:29:20.034Z,12.47
2022-11-02T09:34:23.543Z,12.59
2022-11-02T09:39:28.355Z,12.78
2022-11-02T09:44:44.542Z,13.17
2022-11-02T09:49:48.503Z,13.25
2022-11-02T09:54:55.351Z,13.41
2022-11-02T09:59:59.130Z,13.70
2022-11-02T10:05:16.973Z,13.73
2022-11-02T10:10:28.128Z,13.68
2022-11-02T10:15:39.117Z,13.65
2022-11-02T10:20:46.914Z,13.30
2022-11-02T10:25:52.643Z,13.26
2022-11-02T10:30:56.205Z,13.54
2022-11-02T10:36:19.832Z,13.94
2022-11-02T10:41:50.697Z,13.85
2022-11-02T10:47:05.563Z,13.67
2022-11-02T10:52:13.008Z,13.56
2022-11-02T10:57:24.141Z,13.78
2022-11-02T11:02:27.574Z,13.74
2022-11-02T11:07:30.831Z,14.17
2022-11-02T11:12:41.020Z,14.51
2022-11-02T11:23:20.565Z,14.51
2022-11-02T11:28:27.866Z,14.57
2022-11-02T11:33:32.432Z,14.69
2022-11-02T11:38:35.874Z,14.90
2022-11-02T11:43:41.793Z,14.46
2022-11-02T11:48:48.788Z,13.80
2022-11-02T11:54:23.052Z,13.88
2022-11-02T11:59:31.765Z,13.45
2022-11-02T12:04:37.088Z,13.29
2022-11-02T12:09:49.078Z,13.03
2022-11-02T12:15:06.619Z,13.54
2022-11-02T12:20:20.873Z,13.79
2022-11-02T12:25:45.668Z,13.90
2022-11-02T12:31:02.004Z,14.10
2022-11-02T12:36:13.652Z,14.19
2022-11-02T12:41:40.325Z,14.14
2022-11-02T12:46:53.571Z,14.07
2022-11-02T12:52:08.096Z,14.26
2022-11-02T12:57:15.197Z,13.93
2022-11-02T13:02:26.650Z,14.26
2022-11-02T13:07:35.316Z,14.12
2022-11-02T13:12:39.186Z,14.22
2022-11-02T13:17:47.905Z,14.29
2022-11-02T13:22:57.092Z,14.61
2022-11-02T13:28:07.420Z,14.70
2022-11-02T13:33:18.472Z,14.60
2022-11-02T13:38:32.100Z,14.50
2022-11-02T13:44:13.996Z,14.29
2022-11-02T13:49:24.718Z,14.23
2022-11-02T13:54:31.560Z,14.03
2022-11-02T13:59:43.033Z,14.03
2022-11-02T14:04:49.335Z,14.02
2022-11-02T14:09:58.764Z,13.91
2022-11-02T14:15:48.289Z,13.99
2022-11-02T14:20:53.152Z,13.66
2022-11-02T14:25:58.203Z,13.76
2022-11-02T14:31:41.198Z,13.56
2022-11-02T14:37:00.526Z,13.21
2022-11-02T14:42:30.732Z,12.95
2022-11-02T14:47:35.836Z,12.90
2022-11-02T14:52:44.052Z,12.28
2022-11-02T14:57:54.112Z,12.28
2022-11-02T15:02:58.644Z,12.05
2022-11-02T15:08:06.644Z,11.94
2022-11-02T15:13:46.579Z,11.32
2022-11-02T15:18:50.088Z,11.52
2022-11-02T15:24:05.400Z,11.04
2022-11-02T15:29:17.574Z,10.89
2022-11-02T15:34:21.935Z,10.52
2022-11-02T15:39:27.584Z,10.54
2022-11-02T15:44:56.933Z,10.08
2022-11-02T15:50:16.220Z,10.02
2022-11-02T15:55:25.626Z,10.06
2022-11-02T16:00:31.140Z,9.98
2022-11-02T16:05:42.985Z,9.73
2022-11-02T16:10:49.473Z,9.50
2022-11-02T16:16:05.779Z,9.37
2022-11-02T16:21:13.743Z,9.53
2022-11-02T16:26:22.303Z,9.32
2022-11-02T16:31:31.264Z,9.05
2022-11-02T16:36:38.559Z,8.90
2022-11-02T16:41:49.269Z,8.25
2022-11-02T16:46:56.584Z,8.23
2022-11-02T16:52:01.311Z,7.99
2022-11-02T16:57:13.305Z,7.61
2022-11-02T17:02:17.473Z,7.53
2022-11-02T17:07:26.794Z,7.20
2022-11-02T17:12:35.474Z,7.31
2022-11-02T17:17:40.730Z,7.10
2022-11-02T17:22:55.561Z,7.05
2022-11-02T17:28:02.505Z,6.66
2022-11-02T17:33:10.213Z,6.67
2022-11-02T17:38:14.139Z,6.43
2022-11-02T17:43:20.801Z,6.17
2022-11-02T17:48:25.446Z,6.17
2022-11-02T17:53:29.006Z,6.03
2022-11-02T17:58:33.859Z,5.87
2022-11-02T18:03:37.246Z,5.79
2022-11-02T18:08:54.455Z,5.61
2022-11-02T18:13:59.422Z,5.65
2022-11-02T18:19:02.772Z,5.58
2022-11-02T18:24:06.772Z,5.43
2022-11-02T18:29:11.654Z,5.47
2022-11-02T18:34:15.370Z,5.37
2022-11-02T18:39:20.249Z,5.26
2022-11-02T18:44:25.447Z,5.21
2022-11-02T18:49:29.186Z,4.93
2022-11-02T18:54:33.255Z,5.09
2022-11-02T18:59:39.711Z,4.89
2022-11-02T19:04:43.285Z,4.92
2022-11-02T19:09:46.805Z,4.57
2022-11-02T19:14:54.258Z,4.75
2022-11-02T19:19:58.314Z,4.80
2022-11-02T19:25:02.576Z,4.71
2022-11-02T19:30:09.857Z,4.72
2022-11-02T19:35:13.282Z,4.67
2022-11-02T19:40:18.192Z,4.68
2022-11-02T19:45:23.358Z,4.44
2022-11-02T19:50:26.612Z,4.48
2022-11-02T19:55:30.763Z,4.33
2022-11-02T20:00:36.391Z,4.48
2022-11-02T20:05:40.312Z,4.43
2022-11-02T20:10:44.729Z,4.29
2022-11-02T20:15:49.747Z,4.19
2022-11-02T20:20:53.535Z,4.12
2022-11-02T20:26:02.207Z,4.19
2022-11-02T20:31:11.220Z,3.93
2022-11-02T20:36:15.763Z,4.05
2022-11-02T20:41:21.472Z,3.97
2022-11-02T20:46:47.448Z,3.59
2022-11-02T20:51:52.483Z,3.81
2022-11-02T20:56:56.052Z,3.65
2022-11-02T21:02:01.182Z,3.73
2022-11-02T21:07:04.860Z,3.30
2022-11-02T21:12:26.271Z,3.48
2022-11-02T21:17:31.064Z,3.53
2022-11-02T21:22:34.765Z,3.38
2022-11-02T21:27:38.241Z,3.40
2022-11-02T21:32:44.063Z,3.19
2022-11-02T21:37:47.354Z,3.17
2022-11-02T21:42:50.739Z,2.88
2022-11-02T21:47:55.728Z,3.08
2022-11-02T21:52:59.479Z,3.08
2022-11-02T21:58:03.586Z,2.71
2022-11-02T22:03:08.802Z,3.06
2022-11-02T22:08:30.137Z,3.04
2022-11-02T22:13:34.198Z,3.07
2022-11-02T22:18:39.487Z,3.08
2022-11-02T22:23:43.235Z,2.94
2022-11-02T22:28:47.381Z,2.77
2022-11-02T22:33:53.639Z,2.86
2022-11-02T22:38:58.299Z,2.45
2022-11-02T22:44:04.972Z,2.69
2022-11-02T22:49:11.365Z,2.47
2022-11-02T22:54:17.013Z,2.48
2022-11-02T22:59:20.904Z,2.38
2022-11-02T23:04:25.633Z,2.59
2022-11-02T23:09:29.092Z,2.17
2022-11-02T23:14:32.415Z,2.27
2022-11-02T23:19:38.263Z,2.52
2022-11-02T23:25:00.918Z,2.18
2022-11-02T23:30:21.545Z,2.48
2022-11-02T23:35:43.959Z,2.37
2022-11-02T23:40:47.299Z,2.59
2022-11-02T23:45:50.709Z,2.60
2022-11-02T23:51:15.370Z,2.59
2022-11-02T23:56:36.319Z,2.54
